sensor_id;sensor_type;location;lat;lon;timestamp;temperature;humidity
34095;DHT22;20372;47.080;15.410;2023-02-28T00:02:21;0.70;88.30
34095;DHT22;20372;47.080;15.410;2023-02-28T00:04:46;0.70;88.60
34095;DHT22;20372;47.080;15.410;2023-02-28T00:07:26;0.80;88.90
34095;DHT22;20372;47.080;15.410;2023-02-28T00:09:53;0.70;87.90
34095;DHT22;20372;47.080;15.410;2023-02-28T00:12:19;0.70;89.80
34095;DHT22;20372;47.080;15.410;2023-02-28T00:14:44;0.80;90.70
34095;DHT22;20372;47.080;15.410;2023-02-28T00:17:10;0.70;88.90
34095;DHT22;20372;47.080;15.410;2023-02-28T00:19:35;0.60;88.30
34095;DHT22;20372;47.080;15.410;2023-02-28T00:22:01;0.60;88.10
34095;DHT22;20372;47.080;15.410;2023-02-28T00:24:26;0.60;88.50
34095;DHT22;20372;47.080;15.410;2023-02-28T00:26:52;0.60;88.00
34095;DHT22;20372;47.080;15.410;2023-02-28T00:29:17;0.60;87.90
34095;DHT22;20372;47.080;15.410;2023-02-28T00:31:43;0.70;87.50
34095;DHT22;20372;47.080;15.410;2023-02-28T00:34:09;0.70;87.30
34095;DHT22;20372;47.080;15.410;2023-02-28T00:36:34;0.80;87.50
34095;DHT22;20372;47.080;15.410;2023-02-28T00:39:00;0.80;89.20
34095;DHT22;20372;47.080;15.410;2023-02-28T00:41:25;0.90;91.90
34095;DHT22;20372;47.080;15.410;2023-02-28T00:43:51;0.90;90.60
34095;DHT22;20372;47.080;15.410;2023-02-28T00:46:17;0.80;88.10
34095;DHT22;20372;47.080;15.410;2023-02-28T00:48:42;0.70;88.10
34095;DHT22;20372;47.080;15.410;2023-02-28T00:51:08;0.70;87.90
34095;DHT22;20372;47.080;15.410;2023-02-28T00:53:34;0.80;87.80
34095;DHT22;20372;47.080;15.410;2023-02-28T00:55:59;0.90;87.60
34095;DHT22;20372;47.080;15.410;2023-02-28T00:58:26;1.00;87.00
34095;DHT22;20372;47.080;15.410;2023-02-28T01:00:52;0.90;87.00
34095;DHT22;20372;47.080;15.410;2023-02-28T01:03:18;0.90;88.00
34095;DHT22;20372;47.080;15.410;2023-02-28T01:05:44;0.80;88.80
34095;DHT22;20372;47.080;15.410;2023-02-28T01:08:10;0.70;89.90
34095;DHT22;20372;47.080;15.410;2023-02-28T01:10:36;0.60;90.10
34095;DHT22;20372;47.080;15.410;2023-02-28T01:13:02;0.60;90.60
34095;DHT22;20372;47.080;15.410;2023-02-28T01:15:27;0.50;90.60
34095;DHT22;20372;47.080;15.410;2023-02-28T01:17:53;0.50;90.60
34095;DHT22;20372;47.080;15.410;2023-02-28T01:20:19;0.60;90.60
34095;DHT22;20372;47.080;15.410;2023-02-28T01:22:44;0.60;90.70
34095;DHT22;20372;47.080;15.410;2023-02-28T01:25:10;0.50;90.80
34095;DHT22;20372;47.080;15.410;2023-02-28T01:27:36;0.50;90.90
34095;DHT22;20372;47.080;15.410;2023-02-28T01:30:02;0.40;91.00
34095;DHT22;20372;47.080;15.410;2023-02-28T01:32:27;0.50;91.20
34095;DHT22;20372;47.080;15.410;2023-02-28T01:34:53;0.50;91.00
34095;DHT22;20372;47.080;15.410;2023-02-28T01:37:19;0.50;91.10
34095;DHT22;20372;47.080;15.410;2023-02-28T01:39:44;0.60;91.10
34095;DHT22;20372;47.080;15.410;2023-02-28T01:42:10;0.60;91.00
34095;DHT22;20372;47.080;15.410;2023-02-28T01:47:40;0.50;91.30
34095;DHT22;20372;47.080;15.410;2023-02-28T01:50:12;0.50;91.40
34095;DHT22;20372;47.080;15.410;2023-02-28T01:52:39;0.50;91.50
34095;DHT22;20372;47.080;15.410;2023-02-28T01:55:05;0.50;91.50
34095;DHT22;20372;47.080;15.410;2023-02-28T01:57:32;0.60;91.60
34095;DHT22;20372;47.080;15.410;2023-02-28T02:02:34;0.50;91.50
34095;DHT22;20372;47.080;15.410;2023-02-28T02:05:05;0.60;91.30
34095;DHT22;20372;47.080;15.410;2023-02-28T02:07:32;0.60;91.20
34095;DHT22;20372;47.080;15.410;2023-02-28T02:09:59;0.60;91.30
34095;DHT22;20372;47.080;15.410;2023-02-28T02:17:40;0.60;91.50
34095;DHT22;20372;47.080;15.410;2023-02-28T02:41:05;0.90;91.20
34095;DHT22;20372;47.080;15.410;2023-02-28T02:43:39;0.90;91.00
34095;DHT22;20372;47.080;15.410;2023-02-28T02:46:08;0.90;90.70
34095;DHT22;20372;47.080;15.410;2023-02-28T02:48:36;0.90;90.80
34095;DHT22;20372;47.080;15.410;2023-02-28T02:51:04;0.90;90.80
34095;DHT22;20372;47.080;15.410;2023-02-28T02:53:45;1.00;92.00
34095;DHT22;20372;47.080;15.410;2023-02-28T02:56:12;1.10;92.00
34095;DHT22;20372;47.080;15.410;2023-02-28T02:58:40;1.20;91.70
34095;DHT22;20372;47.080;15.410;2023-02-28T03:01:08;1.20;92.20
34095;DHT22;20372;47.080;15.410;2023-02-28T03:03:35;1.20;92.80
34095;DHT22;20372;47.080;15.410;2023-02-28T03:06:01;1.20;92.30
34095;DHT22;20372;47.080;15.410;2023-02-28T03:08:29;1.20;92.20
34095;DHT22;20372;47.080;15.410;2023-02-28T03:10:56;1.10;91.70
34095;DHT22;20372;47.080;15.410;2023-02-28T03:26:44;1.00;92.20
34095;DHT22;20372;47.080;15.410;2023-02-28T03:34:31;1.10;93.00
34095;DHT22;20372;47.080;15.410;2023-02-28T03:36:59;1.20;93.60
34095;DHT22;20372;47.080;15.410;2023-02-28T03:39:28;1.20;94.30
34095;DHT22;20372;47.080;15.410;2023-02-28T03:41:57;1.20;93.90
34095;DHT22;20372;47.080;15.410;2023-02-28T03:44:25;1.30;94.50
34095;DHT22;20372;47.080;15.410;2023-02-28T03:47:00;1.30;93.70
34095;DHT22;20372;47.080;15.410;2023-02-28T03:49:32;1.30;95.20
34095;DHT22;20372;47.080;15.410;2023-02-28T03:51:59;1.30;94.20
34095;DHT22;20372;47.080;15.410;2023-02-28T03:54:30;1.30;92.70
34095;DHT22;20372;47.080;15.410;2023-02-28T03:56:59;1.10;92.30
34095;DHT22;20372;47.080;15.410;2023-02-28T03:59:30;1.00;92.00
34095;DHT22;20372;47.080;15.410;2023-02-28T04:01:57;1.10;92.20
34095;DHT22;20372;47.080;15.410;2023-02-28T04:04:23;1.10;92.70
34095;DHT22;20372;47.080;15.410;2023-02-28T04:06:52;1.20;93.50
34095;DHT22;20372;47.080;15.410;2023-02-28T04:09:25;1.30;95.40
34095;DHT22;20372;47.080;15.410;2023-02-28T04:11:53;1.30;95.60
34095;DHT22;20372;47.080;15.410;2023-02-28T04:14:18;1.30;94.80
34095;DHT22;20372;47.080;15.410;2023-02-28T04:16:44;1.30;94.60
34095;DHT22;20372;47.080;15.410;2023-02-28T04:19:11;1.30;93.70
34095;DHT22;20372;47.080;15.410;2023-02-28T04:21:37;1.30;93.70
34095;DHT22;20372;47.080;15.410;2023-02-28T04:24:04;1.30;93.30
34095;DHT22;20372;47.080;15.410;2023-02-28T04:26:30;1.20;92.20
34095;DHT22;20372;47.080;15.410;2023-02-28T04:28:56;1.10;93.90
34095;DHT22;20372;47.080;15.410;2023-02-28T04:31:21;1.10;92.10
34095;DHT22;20372;47.080;15.410;2023-02-28T04:33:47;1.00;92.10
34095;DHT22;20372;47.080;15.410;2023-02-28T04:36:12;1.10;91.70
34095;DHT22;20372;47.080;15.410;2023-02-28T04:38:39;1.00;92.00
34095;DHT22;20372;47.080;15.410;2023-02-28T04:41:05;0.90;91.60
34095;DHT22;20372;47.080;15.410;2023-02-28T04:43:31;0.90;91.20
34095;DHT22;20372;47.080;15.410;2023-02-28T04:45:57;0.90;91.20
34095;DHT22;20372;47.080;15.410;2023-02-28T04:48:23;0.90;91.20
34095;DHT22;20372;47.080;15.410;2023-02-28T04:50:51;0.80;90.80
34095;DHT22;20372;47.080;15.410;2023-02-28T04:53:16;0.80;91.00
34095;DHT22;20372;47.080;15.410;2023-02-28T04:55:42;0.80;90.80
34095;DHT22;20372;47.080;15.410;2023-02-28T04:58:08;0.70;90.70
34095;DHT22;20372;47.080;15.410;2023-02-28T05:00:33;0.80;91.00
34095;DHT22;20372;47.080;15.410;2023-02-28T05:02:59;0.90;91.70
34095;DHT22;20372;47.080;15.410;2023-02-28T05:05:24;0.90;91.60
34095;DHT22;20372;47.080;15.410;2023-02-28T05:07:50;0.90;91.80
34095;DHT22;20372;47.080;15.410;2023-02-28T05:10:15;0.80;91.50
34095;DHT22;20372;47.080;15.410;2023-02-28T05:12:41;0.70;91.50
34095;DHT22;20372;47.080;15.410;2023-02-28T05:15:07;0.70;91.70
34095;DHT22;20372;47.080;15.410;2023-02-28T05:17:33;0.70;92.10
34095;DHT22;20372;47.080;15.410;2023-02-28T05:19:59;0.70;91.70
34095;DHT22;20372;47.080;15.410;2023-02-28T05:22:24;0.70;91.70
34095;DHT22;20372;47.080;15.410;2023-02-28T05:24:50;0.70;91.90
34095;DHT22;20372;47.080;15.410;2023-02-28T05:27:16;0.70;91.90
34095;DHT22;20372;47.080;15.410;2023-02-28T05:29:42;0.80;92.00
34095;DHT22;20372;47.080;15.410;2023-02-28T05:32:09;0.80;91.90
34095;DHT22;20372;47.080;15.410;2023-02-28T05:34:36;0.70;91.80
34095;DHT22;20372;47.080;15.410;2023-02-28T05:37:01;0.70;91.70
34095;DHT22;20372;47.080;15.410;2023-02-28T05:39:27;0.60;91.80
34095;DHT22;20372;47.080;15.410;2023-02-28T05:41:53;0.60;91.80
34095;DHT22;20372;47.080;15.410;2023-02-28T05:44:18;0.60;91.90
34095;DHT22;20372;47.080;15.410;2023-02-28T05:46:44;0.60;91.70
34095;DHT22;20372;47.080;15.410;2023-02-28T05:49:09;0.60;91.70
34095;DHT22;20372;47.080;15.410;2023-02-28T05:51:35;0.70;92.30
34095;DHT22;20372;47.080;15.410;2023-02-28T05:54:01;2.60;92.20
34095;DHT22;20372;47.080;15.410;2023-02-28T05:56:27;0.70;91.70
34095;DHT22;20372;47.080;15.410;2023-02-28T05:58:52;0.80;91.80
34095;DHT22;20372;47.080;15.410;2023-02-28T06:01:19;0.70;91.90
34095;DHT22;20372;47.080;15.410;2023-02-28T06:03:45;0.80;91.80
34095;DHT22;20372;47.080;15.410;2023-02-28T06:06:10;0.60;91.70
34095;DHT22;20372;47.080;15.410;2023-02-28T06:08:36;0.60;91.80
34095;DHT22;20372;47.080;15.410;2023-02-28T06:11:04;0.70;91.60
34095;DHT22;20372;47.080;15.410;2023-02-28T06:13:31;0.60;91.70
34095;DHT22;20372;47.080;15.410;2023-02-28T06:16:00;0.60;92.20
34095;DHT22;20372;47.080;15.410;2023-02-28T06:18:25;0.70;92.20
34095;DHT22;20372;47.080;15.410;2023-02-28T06:20:54;0.60;91.90
34095;DHT22;20372;47.080;15.410;2023-02-28T06:23:20;0.60;92.00
34095;DHT22;20372;47.080;15.410;2023-02-28T06:25:46;0.60;92.20
34095;DHT22;20372;47.080;15.410;2023-02-28T06:28:12;0.70;92.30
34095;DHT22;20372;47.080;15.410;2023-02-28T06:30:38;0.70;92.10
34095;DHT22;20372;47.080;15.410;2023-02-28T06:33:03;0.70;92.00
34095;DHT22;20372;47.080;15.410;2023-02-28T06:35:29;0.70;92.10
34095;DHT22;20372;47.080;15.410;2023-02-28T06:37:54;0.80;92.10
34095;DHT22;20372;47.080;15.410;2023-02-28T06:40:20;0.90;92.20
34095;DHT22;20372;47.080;15.410;2023-02-28T06:42:46;0.80;92.30
34095;DHT22;20372;47.080;15.410;2023-02-28T06:45:11;0.80;92.50
34095;DHT22;20372;47.080;15.410;2023-02-28T06:47:38;1.50;92.80
34095;DHT22;20372;47.080;15.410;2023-02-28T06:50:04;0.90;92.30
34095;DHT22;20372;47.080;15.410;2023-02-28T06:52:30;0.90;92.30
34095;DHT22;20372;47.080;15.410;2023-02-28T06:54:55;0.90;92.10
34095;DHT22;20372;47.080;15.410;2023-02-28T06:57:27;0.80;92.50
34095;DHT22;20372;47.080;15.410;2023-02-28T06:59:53;0.80;92.40
34095;DHT22;20372;47.080;15.410;2023-02-28T07:02:18;0.90;92.80
34095;DHT22;20372;47.080;15.410;2023-02-28T07:04:44;1.00;92.50
34095;DHT22;20372;47.080;15.410;2023-02-28T07:07:09;1.00;92.50
34095;DHT22;20372;47.080;15.410;2023-02-28T07:09:35;1.00;92.30
34095;DHT22;20372;47.080;15.410;2023-02-28T07:12:01;1.10;92.20
34095;DHT22;20372;47.080;15.410;2023-02-28T07:14:26;1.10;92.20
34095;DHT22;20372;47.080;15.410;2023-02-28T07:16:52;1.20;92.60
34095;DHT22;20372;47.080;15.410;2023-02-28T07:19:17;1.30;99.90
34095;DHT22;20372;47.080;15.410;2023-02-28T07:21:43;1.40;97.20
34095;DHT22;20372;47.080;15.410;2023-02-28T07:24:08;1.20;95.50
34095;DHT22;20372;47.080;15.410;2023-02-28T07:26:34;1.20;95.10
34095;DHT22;20372;47.080;15.410;2023-02-28T07:29:00;1.10;95.10
34095;DHT22;20372;47.080;15.410;2023-02-28T07:31:25;1.00;94.90
34095;DHT22;20372;47.080;15.410;2023-02-28T07:33:51;1.00;95.00
34095;DHT22;20372;47.080;15.410;2023-02-28T07:36:17;1.10;94.90
34095;DHT22;20372;47.080;15.410;2023-02-28T07:38:44;1.10;95.00
34095;DHT22;20372;47.080;15.410;2023-02-28T07:41:10;1.20;94.80
34095;DHT22;20372;47.080;15.410;2023-02-28T07:43:35;1.30;94.60
34095;DHT22;20372;47.080;15.410;2023-02-28T07:46:02;1.20;94.70
34095;DHT22;20372;47.080;15.410;2023-02-28T07:48:28;1.10;94.60
34095;DHT22;20372;47.080;15.410;2023-02-28T07:50:54;1.20;94.50
34095;DHT22;20372;47.080;15.410;2023-02-28T07:53:20;1.20;94.50
34095;DHT22;20372;47.080;15.410;2023-02-28T07:55:46;1.20;94.30
34095;DHT22;20372;47.080;15.410;2023-02-28T07:58:11;1.30;94.10
34095;DHT22;20372;47.080;15.410;2023-02-28T08:00:37;2.50;94.50
34095;DHT22;20372;47.080;15.410;2023-02-28T08:03:02;1.30;94.30
34095;DHT22;20372;47.080;15.410;2023-02-28T08:05:28;1.40;94.20
34095;DHT22;20372;47.080;15.410;2023-02-28T08:07:55;1.40;94.10
34095;DHT22;20372;47.080;15.410;2023-02-28T08:10:21;1.40;94.10
34095;DHT22;20372;47.080;15.410;2023-02-28T08:12:46;1.30;94.00
34095;DHT22;20372;47.080;15.410;2023-02-28T08:15:12;1.50;93.70
34095;DHT22;20372;47.080;15.410;2023-02-28T08:17:38;1.50;94.00
34095;DHT22;20372;47.080;15.410;2023-02-28T08:20:03;1.30;93.80
34095;DHT22;20372;47.080;15.410;2023-02-28T08:22:29;1.30;94.20
34095;DHT22;20372;47.080;15.410;2023-02-28T08:24:55;1.40;94.60
34095;DHT22;20372;47.080;15.410;2023-02-28T08:27:20;1.70;93.60
34095;DHT22;20372;47.080;15.410;2023-02-28T08:29:46;1.60;93.60
34095;DHT22;20372;47.080;15.410;2023-02-28T08:32:11;1.70;93.70
34095;DHT22;20372;47.080;15.410;2023-02-28T08:34:38;1.70;93.60
34095;DHT22;20372;47.080;15.410;2023-02-28T08:37:04;1.60;93.40
34095;DHT22;20372;47.080;15.410;2023-02-28T08:39:29;1.70;94.00
34095;DHT22;20372;47.080;15.410;2023-02-28T08:41:55;1.80;93.20
34095;DHT22;20372;47.080;15.410;2023-02-28T08:44:20;2.20;99.80
34095;DHT22;20372;47.080;15.410;2023-02-28T08:46:46;2.30;93.80
34095;DHT22;20372;47.080;15.410;2023-02-28T08:49:12;2.10;93.20
34095;DHT22;20372;47.080;15.410;2023-02-28T08:51:38;2.20;93.30
34095;DHT22;20372;47.080;15.410;2023-02-28T08:54:04;2.00;92.70
34095;DHT22;20372;47.080;15.410;2023-02-28T08:56:29;2.00;92.80
34095;DHT22;20372;47.080;15.410;2023-02-28T08:58:56;1.90;92.60
34095;DHT22;20372;47.080;15.410;2023-02-28T09:01:23;2.00;92.60
34095;DHT22;20372;47.080;15.410;2023-02-28T09:03:49;2.00;92.40
34095;DHT22;20372;47.080;15.410;2023-02-28T09:06:16;2.00;92.60
34095;DHT22;20372;47.080;15.410;2023-02-28T09:08:42;1.90;92.60
34095;DHT22;20372;47.080;15.410;2023-02-28T09:11:08;2.10;92.60
34095;DHT22;20372;47.080;15.410;2023-02-28T09:13:34;2.30;92.10
34095;DHT22;20372;47.080;15.410;2023-02-28T09:16:00;2.50;92.00
34095;DHT22;20372;47.080;15.410;2023-02-28T09:18:26;2.70;92.90
34095;DHT22;20372;47.080;15.410;2023-02-28T09:20:51;3.00;92.50
34095;DHT22;20372;47.080;15.410;2023-02-28T09:23:17;3.00;91.30
34095;DHT22;20372;47.080;15.410;2023-02-28T09:25:50;3.10;91.60
34095;DHT22;20372;47.080;15.410;2023-02-28T09:28:16;3.20;91.20
34095;DHT22;20372;47.080;15.410;2023-02-28T09:30:43;3.10;91.30
34095;DHT22;20372;47.080;15.410;2023-02-28T09:33:09;3.20;91.00
34095;DHT22;20372;47.080;15.410;2023-02-28T09:35:35;3.00;90.40
34095;DHT22;20372;47.080;15.410;2023-02-28T09:38:02;2.90;90.60
34095;DHT22;20372;47.080;15.410;2023-02-28T09:40:28;2.80;90.40
34095;DHT22;20372;47.080;15.410;2023-02-28T09:42:55;3.00;90.50
34095;DHT22;20372;47.080;15.410;2023-02-28T09:47:50;3.10;90.10
34095;DHT22;20372;47.080;15.410;2023-02-28T09:52:51;2.80;90.60
34095;DHT22;20372;47.080;15.410;2023-02-28T09:57:46;3.30;89.60
34095;DHT22;20372;47.080;15.410;2023-02-28T10:07:42;3.30;88.40
34095;DHT22;20372;47.080;15.410;2023-02-28T10:12:44;3.80;88.60
34095;DHT22;20372;47.080;15.410;2023-02-28T10:15:14;3.90;86.60
34095;DHT22;20372;47.080;15.410;2023-02-28T10:17:41;3.80;85.30
34095;DHT22;20372;47.080;15.410;2023-02-28T10:20:10;3.60;85.40
34095;DHT22;20372;47.080;15.410;2023-02-28T10:22:57;3.60;85.60
34095;DHT22;20372;47.080;15.410;2023-02-28T10:25:25;3.60;85.70
34095;DHT22;20372;47.080;15.410;2023-02-28T10:27:59;3.30;87.50
34095;DHT22;20372;47.080;15.410;2023-02-28T10:30:26;3.50;87.20
34095;DHT22;20372;47.080;15.410;2023-02-28T10:32:52;3.70;86.00
34095;DHT22;20372;47.080;15.410;2023-02-28T10:35:21;4.40;87.80
34095;DHT22;20372;47.080;15.410;2023-02-28T10:37:48;4.80;86.80
34095;DHT22;20372;47.080;15.410;2023-02-28T10:42:42;5.30;85.20
34095;DHT22;20372;47.080;15.410;2023-02-28T10:45:20;5.10;83.50
34095;DHT22;20372;47.080;15.410;2023-02-28T10:47:51;5.20;83.30
34095;DHT22;20372;47.080;15.410;2023-02-28T10:52:51;5.40;84.30
34095;DHT22;20372;47.080;15.410;2023-02-28T10:55:22;4.60;83.80
34095;DHT22;20372;47.080;15.410;2023-02-28T10:57:48;4.90;87.20
34095;DHT22;20372;47.080;15.410;2023-02-28T11:00:16;5.40;86.00
34095;DHT22;20372;47.080;15.410;2023-02-28T11:02:42;5.60;87.10
34095;DHT22;20372;47.080;15.410;2023-02-28T11:05:26;5.80;85.20
34095;DHT22;20372;47.080;15.410;2023-02-28T11:07:56;5.20;84.00
34095;DHT22;20372;47.080;15.410;2023-02-28T11:10:24;5.30;84.40
34095;DHT22;20372;47.080;15.410;2023-02-28T11:12:54;4.80;82.90
34095;DHT22;20372;47.080;15.410;2023-02-28T11:17:52;4.90;85.70
34095;DHT22;20372;47.080;15.410;2023-02-28T11:20:20;4.60;84.40
34095;DHT22;20372;47.080;15.410;2023-02-28T11:22:48;4.60;86.50
34095;DHT22;20372;47.080;15.410;2023-02-28T11:27:54;5.90;86.90
34095;DHT22;20372;47.080;15.410;2023-02-28T11:30:24;5.80;81.90
34095;DHT22;20372;47.080;15.410;2023-02-28T11:32:51;5.90;86.70
34095;DHT22;20372;47.080;15.410;2023-02-28T11:35:19;6.20;83.60
34095;DHT22;20372;47.080;15.410;2023-02-28T11:37:47;5.90;83.40
34095;DHT22;20372;47.080;15.410;2023-02-28T11:40:17;5.10;82.30
34095;DHT22;20372;47.080;15.410;2023-02-28T11:43:04;4.10;85.00
34095;DHT22;20372;47.080;15.410;2023-02-28T11:46:15;3.80;87.10
34095;DHT22;20372;47.080;15.410;2023-02-28T11:48:32;4.40;85.50
34095;DHT22;20372;47.080;15.410;2023-02-28T11:51:05;4.80;84.30
34095;DHT22;20372;47.080;15.410;2023-02-28T11:54:18;4.50;84.60
34095;DHT22;20372;47.080;15.410;2023-02-28T12:04:27;5.40;84.00
34095;DHT22;20372;47.080;15.410;2023-02-28T12:07:15;5.60;83.10
34095;DHT22;20372;47.080;15.410;2023-02-28T12:12:23;6.30;85.50
34095;DHT22;20372;47.080;15.410;2023-02-28T12:17:27;5.60;81.70
34095;DHT22;20372;47.080;15.410;2023-02-28T12:20:04;5.20;83.10
34095;DHT22;20372;47.080;15.410;2023-02-28T12:22:31;5.20;83.00
34095;DHT22;20372;47.080;15.410;2023-02-28T12:27:24;5.60;82.40
34095;DHT22;20372;47.080;15.410;2023-02-28T12:29:54;5.80;83.90
34095;DHT22;20372;47.080;15.410;2023-02-28T12:32:29;5.90;85.40
34095;DHT22;20372;47.080;15.410;2023-02-28T12:34:57;5.50;81.50
34095;DHT22;20372;47.080;15.410;2023-02-28T12:37:34;5.10;82.60
34095;DHT22;20372;47.080;15.410;2023-02-28T12:40:05;4.90;83.30
34095;DHT22;20372;47.080;15.410;2023-02-28T12:42:32;4.90;83.10
34095;DHT22;20372;47.080;15.410;2023-02-28T12:45:01;5.30;83.90
34095;DHT22;20372;47.080;15.410;2023-02-28T12:47:27;5.40;82.50
34095;DHT22;20372;47.080;15.410;2023-02-28T12:52:21;5.80;82.80
34095;DHT22;20372;47.080;15.410;2023-02-28T12:55:06;4.40;82.00
34095;DHT22;20372;47.080;15.410;2023-02-28T12:57:39;6.10;83.40
34095;DHT22;20372;47.080;15.410;2023-02-28T13:00:14;6.40;85.70
34095;DHT22;20372;47.080;15.410;2023-02-28T13:02:54;6.10;80.80
34095;DHT22;20372;47.080;15.410;2023-02-28T13:10:47;6.00;84.10
34095;DHT22;20372;47.080;15.410;2023-02-28T13:13:16;6.00;84.30
34095;DHT22;20372;47.080;15.410;2023-02-28T13:15:56;5.60;82.90
34095;DHT22;20372;47.080;15.410;2023-02-28T13:18:30;5.80;85.60
34095;DHT22;20372;47.080;15.410;2023-02-28T13:20:56;5.60;84.30
34095;DHT22;20372;47.080;15.410;2023-02-28T13:23:39;6.10;84.50
34095;DHT22;20372;47.080;15.410;2023-02-28T13:26:05;6.10;83.80
34095;DHT22;20372;47.080;15.410;2023-02-28T13:31:15;6.30;84.40
34095;DHT22;20372;47.080;15.410;2023-02-28T13:44:15;6.30;85.80
34095;DHT22;20372;47.080;15.410;2023-02-28T13:51:52;7.90;87.30
34095;DHT22;20372;47.080;15.410;2023-02-28T13:54:21;6.70;85.80
34095;DHT22;20372;47.080;15.410;2023-02-28T13:56:57;5.80;87.50
34095;DHT22;20372;47.080;15.410;2023-02-28T13:59:33;5.60;86.80
34095;DHT22;20372;47.080;15.410;2023-02-28T14:03:05;6.20;87.10
34095;DHT22;20372;47.080;15.410;2023-02-28T14:05:05;6.50;85.70
34095;DHT22;20372;47.080;15.410;2023-02-28T14:07:33;6.30;84.20
34095;DHT22;20372;47.080;15.410;2023-02-28T14:10:03;6.20;85.70
34095;DHT22;20372;47.080;15.410;2023-02-28T14:18:05;6.20;84.10
34095;DHT22;20372;47.080;15.410;2023-02-28T14:20:36;6.60;86.50
34095;DHT22;20372;47.080;15.410;2023-02-28T14:31:08;5.70;83.30
34095;DHT22;20372;47.080;15.410;2023-02-28T14:36:27;5.50;83.90
34095;DHT22;20372;47.080;15.410;2023-02-28T14:38:57;5.10;85.00
34095;DHT22;20372;47.080;15.410;2023-02-28T14:41:28;5.20;86.40
34095;DHT22;20372;47.080;15.410;2023-02-28T14:43:56;5.20;86.10
34095;DHT22;20372;47.080;15.410;2023-02-28T14:46:23;5.20;86.30
34095;DHT22;20372;47.080;15.410;2023-02-28T14:48:51;5.40;86.50
34095;DHT22;20372;47.080;15.410;2023-02-28T14:51:20;5.70;86.00
34095;DHT22;20372;47.080;15.410;2023-02-28T14:53:51;5.80;85.80
34095;DHT22;20372;47.080;15.410;2023-02-28T14:56:19;5.00;84.90
34095;DHT22;20372;47.080;15.410;2023-02-28T14:58:50;5.50;88.00
34095;DHT22;20372;47.080;15.410;2023-02-28T15:01:18;5.70;87.10
34095;DHT22;20372;47.080;15.410;2023-02-28T15:03:44;5.80;85.80
34095;DHT22;20372;47.080;15.410;2023-02-28T15:06:14;5.60;86.20
34095;DHT22;20372;47.080;15.410;2023-02-28T15:08:40;5.70;87.80
34095;DHT22;20372;47.080;15.410;2023-02-28T15:11:16;5.50;87.40
34095;DHT22;20372;47.080;15.410;2023-02-28T15:13:46;5.50;86.50
34095;DHT22;20372;47.080;15.410;2023-02-28T15:16:13;5.70;87.80
34095;DHT22;20372;47.080;15.410;2023-02-28T15:18:54;5.70;86.00
34095;DHT22;20372;47.080;15.410;2023-02-28T15:21:21;5.60;86.50
34095;DHT22;20372;47.080;15.410;2023-02-28T15:23:54;5.50;86.30
34095;DHT22;20372;47.080;15.410;2023-02-28T15:26:21;5.50;86.20
34095;DHT22;20372;47.080;15.410;2023-02-28T15:28:51;5.20;85.50
34095;DHT22;20372;47.080;15.410;2023-02-28T15:31:19;4.90;86.20
34095;DHT22;20372;47.080;15.410;2023-02-28T15:33:58;5.00;88.00
34095;DHT22;20372;47.080;15.410;2023-02-28T15:36:31;5.00;88.80
34095;DHT22;20372;47.080;15.410;2023-02-28T15:38:59;5.00;88.70
34095;DHT22;20372;47.080;15.410;2023-02-28T15:41:35;4.90;87.20
34095;DHT22;20372;47.080;15.410;2023-02-28T15:47:02;4.60;87.80
34095;DHT22;20372;47.080;15.410;2023-02-28T15:49:38;4.60;88.40
34095;DHT22;20372;47.080;15.410;2023-02-28T15:52:04;4.60;88.60
34095;DHT22;20372;47.080;15.410;2023-02-28T15:54:32;4.50;87.00
34095;DHT22;20372;47.080;15.410;2023-02-28T15:57:00;4.50;89.00
34095;DHT22;20372;47.080;15.410;2023-02-28T15:59:28;4.60;89.70
34095;DHT22;20372;47.080;15.410;2023-02-28T16:04:35;4.50;88.30
34095;DHT22;20372;47.080;15.410;2023-02-28T16:07:02;4.30;90.10
34095;DHT22;20372;47.080;15.410;2023-02-28T16:09:28;4.10;88.60
34095;DHT22;20372;47.080;15.410;2023-02-28T16:11:56;4.00;90.50
34095;DHT22;20372;47.080;15.410;2023-02-28T16:14:25;3.90;89.80
34095;DHT22;20372;47.080;15.410;2023-02-28T16:16:56;3.80;90.10
34095;DHT22;20372;47.080;15.410;2023-02-28T16:19:23;3.80;90.50
34095;DHT22;20372;47.080;15.410;2023-02-28T16:21:49;5.00;90.20
34095;DHT22;20372;47.080;15.410;2023-02-28T16:24:14;3.70;90.40
34095;DHT22;20372;47.080;15.410;2023-02-28T16:26:40;3.70;90.30
34095;DHT22;20372;47.080;15.410;2023-02-28T16:29:06;3.70;90.30
34095;DHT22;20372;47.080;15.410;2023-02-28T16:31:36;3.70;90.40
34095;DHT22;20372;47.080;15.410;2023-02-28T16:34:02;3.70;90.90
34095;DHT22;20372;47.080;15.410;2023-02-28T16:36:28;3.60;91.00
34095;DHT22;20372;47.080;15.410;2023-02-28T16:38:54;3.50;90.90
34095;DHT22;20372;47.080;15.410;2023-02-28T16:41:20;3.50;91.00
34095;DHT22;20372;47.080;15.410;2023-02-28T16:43:47;3.50;91.60
34095;DHT22;20372;47.080;15.410;2023-02-28T16:46:14;3.50;91.50
34095;DHT22;20372;47.080;15.410;2023-02-28T16:48:40;3.40;91.90
34095;DHT22;20372;47.080;15.410;2023-02-28T16:51:15;3.50;91.70
34095;DHT22;20372;47.080;15.410;2023-02-28T16:53:41;3.50;91.30
34095;DHT22;20372;47.080;15.410;2023-02-28T16:56:09;3.60;91.30
34095;DHT22;20372;47.080;15.410;2023-02-28T16:58:38;3.60;91.90
34095;DHT22;20372;47.080;15.410;2023-02-28T17:01:04;3.60;91.40
34095;DHT22;20372;47.080;15.410;2023-02-28T17:03:30;3.50;91.30
34095;DHT22;20372;47.080;15.410;2023-02-28T17:05:55;3.50;91.70
34095;DHT22;20372;47.080;15.410;2023-02-28T17:08:21;3.60;91.70
34095;DHT22;20372;47.080;15.410;2023-02-28T17:10:46;3.50;91.70
34095;DHT22;20372;47.080;15.410;2023-02-28T17:13:12;3.50;91.60
34095;DHT22;20372;47.080;15.410;2023-02-28T17:15:37;3.60;91.60
34095;DHT22;20372;47.080;15.410;2023-02-28T17:18:04;3.60;92.40
34095;DHT22;20372;47.080;15.410;2023-02-28T17:20:30;3.60;92.50
34095;DHT22;20372;47.080;15.410;2023-02-28T17:22:56;3.50;92.60
34095;DHT22;20372;47.080;15.410;2023-02-28T17:25:22;3.50;93.00
34095;DHT22;20372;47.080;15.410;2023-02-28T17:27:48;3.50;93.10
34095;DHT22;20372;47.080;15.410;2023-02-28T17:30:15;3.50;92.90
34095;DHT22;20372;47.080;15.410;2023-02-28T17:32:41;3.50;93.00
34095;DHT22;20372;47.080;15.410;2023-02-28T17:35:07;3.50;93.60
34095;DHT22;20372;47.080;15.410;2023-02-28T17:37:33;3.50;93.60
34095;DHT22;20372;47.080;15.410;2023-02-28T17:39:59;3.40;93.90
34095;DHT22;20372;47.080;15.410;2023-02-28T17:42:24;3.40;93.90
34095;DHT22;20372;47.080;15.410;2023-02-28T17:44:50;3.40;94.20
34095;DHT22;20372;47.080;15.410;2023-02-28T17:47:15;3.40;94.40
34095;DHT22;20372;47.080;15.410;2023-02-28T17:49:41;3.30;94.10
34095;DHT22;20372;47.080;15.410;2023-02-28T17:52:07;3.30;94.10
34095;DHT22;20372;47.080;15.410;2023-02-28T17:54:32;3.40;94.40
34095;DHT22;20372;47.080;15.410;2023-02-28T17:56:58;3.40;94.90